createdAt,value
2018-12-30T00:02:19.165Z,95.30
2018-12-30T00:07:25.732Z,95.60
2018-12-30T00:12:31.913Z,95.40
2018-12-30T00:17:37.993Z,95.70
2018-12-30T00:22:44.101Z,95.80
2018-12-30T00:27:50.238Z,95.70
2018-12-30T00:32:56.326Z,95.40
2018-12-30T00:38:02.334Z,96.00
2018-12-30T00:43:08.388Z,95.90
2018-12-30T00:48:14.552Z,96.00
2018-12-30T00:53:20.697Z,95.10
2018-12-30T00:58:26.820Z,95.30
2018-12-30T01:03:32.776Z,95.30
2018-12-30T01:08:39.045Z,95.50
2018-12-30T01:13:45.441Z,95.70
2018-12-30T01:18:51.510Z,95.40
2018-12-30T01:23:57.980Z,95.60
2018-12-30T01:29:03.992Z,95.50
2018-12-30T01:34:10.557Z,95.90
2018-12-30T01:39:16.626Z,95.80
2018-12-30T01:44:23.292Z,95.60
2018-12-30T01:49:29.529Z,96.20
2018-12-30T01:54:36.116Z,95.80
2018-12-30T01:59:42.330Z,96.00
2018-12-30T02:04:48.834Z,95.70
2018-12-30T02:09:54.920Z,95.80
2018-12-30T02:15:01.410Z,96.00
2018-12-30T02:20:07.347Z,95.80
2018-12-30T02:25:13.464Z,96.00
2018-12-30T02:30:19.512Z,96.40
2018-12-30T02:35:25.592Z,96.40
2018-12-30T02:40:31.597Z,96.90
2018-12-30T02:45:37.655Z,97.00
2018-12-30T02:50:43.850Z,97.00
2018-12-30T02:55:50.019Z,97.20
2018-12-30T03:00:56.269Z,97.40
2018-12-30T03:06:02.326Z,97.60
2018-12-30T03:11:08.465Z,97.40
2018-12-30T03:16:14.594Z,97.70
2018-12-30T03:21:20.770Z,97.10
2018-12-30T03:26:26.846Z,97.30
2018-12-30T03:31:32.821Z,97.60
2018-12-30T03:36:39.004Z,97.50
2018-12-30T03:41:45.142Z,98.00
2018-12-30T03:46:51.232Z,98.60
2018-12-30T03:51:57.474Z,98.10
2018-12-30T03:57:03.515Z,98.20
2018-12-30T04:02:09.689Z,98.90
2018-12-30T04:07:15.752Z,99.00
2018-12-30T04:12:21.818Z,99.10
2018-12-30T04:17:27.859Z,99.10
2018-12-30T04:22:34.114Z,99.10
2018-12-30T04:27:40.183Z,99.20
2018-12-30T04:32:46.207Z,99.70
2018-12-30T04:37:52.241Z,99.70
2018-12-30T04:42:59.190Z,99.50
2018-12-30T04:48:05.281Z,99.20
2018-12-30T04:53:11.468Z,99.80
2018-12-30T04:58:17.622Z,99.90
2018-12-30T05:03:23.705Z,99.80
2018-12-30T05:08:29.749Z,99.90
2018-12-30T05:13:35.962Z,99.90
2018-12-30T05:18:42.050Z,99.90
2018-12-30T05:23:48.069Z,99.90
2018-12-30T05:28:54.301Z,99.90
2018-12-30T05:34:00.431Z,99.90
2018-12-30T05:39:07.636Z,99.70
2018-12-30T05:44:13.706Z,99.90
2018-12-30T05:49:19.804Z,99.90
2018-12-30T05:54:25.892Z,99.90
2018-12-30T05:59:32.048Z,99.90
2018-12-30T06:04:38.150Z,99.60
2018-12-30T06:09:44.181Z,99.60
2018-12-30T06:14:50.255Z,99.20
2018-12-30T06:19:56.457Z,98.70
2018-12-30T06:25:02.520Z,99.00
2018-12-30T06:30:08.734Z,98.80
2018-12-30T06:35:14.759Z,99.00
2018-12-30T06:40:20.935Z,99.30
2018-12-30T06:45:27.029Z,98.80
2018-12-30T06:50:33.122Z,99.20
2018-12-30T06:55:39.175Z,98.70
2018-12-30T07:00:45.409Z,98.80
2018-12-30T07:05:51.536Z,98.50
2018-12-30T07:10:57.606Z,98.60
2018-12-30T07:16:03.854Z,98.70
2018-12-30T07:21:10.021Z,99.20
2018-12-30T07:26:16.128Z,98.50
2018-12-30T07:31:22.348Z,98.60
2018-12-30T07:36:28.493Z,98.60
2018-12-30T07:41:34.674Z,98.20
2018-12-30T07:46:40.746Z,98.30
2018-12-30T07:51:46.827Z,98.10
2018-12-30T07:56:52.981Z,97.80
2018-12-30T08:01:59.144Z,97.80
2018-12-30T08:07:05.145Z,97.70
2018-12-30T08:12:13.693Z,97.20
2018-12-30T08:17:19.948Z,97.00
2018-12-30T08:22:26.151Z,97.10
2018-12-30T08:27:32.265Z,96.90
2018-12-30T08:32:38.386Z,95.90
2018-12-30T08:37:44.435Z,95.90
2018-12-30T08:42:50.512Z,95.20
2018-12-30T08:47:56.653Z,95.00
2018-12-30T08:53:02.845Z,94.20
2018-12-30T08:58:08.827Z,93.50
2018-12-30T09:03:14.940Z,93.40
2018-12-30T09:08:20.979Z,93.30
2018-12-30T09:13:27.183Z,93.10
2018-12-30T09:18:33.233Z,93.20
2018-12-30T09:23:39.324Z,93.60
2018-12-30T09:28:45.400Z,92.60
2018-12-30T09:33:51.673Z,92.70
2018-12-30T09:38:57.742Z,92.30
2018-12-30T09:44:03.721Z,92.00
2018-12-30T09:49:09.824Z,91.90
2018-12-30T09:54:16.785Z,92.00
2018-12-30T09:59:22.953Z,92.00
2018-12-30T10:04:29.129Z,92.20
2018-12-30T10:09:35.181Z,92.20
2018-12-30T10:14:41.526Z,92.30
2018-12-30T10:19:47.910Z,92.30
2018-12-30T10:24:54.085Z,92.10
2018-12-30T10:30:00.268Z,91.80
2018-12-30T10:35:06.474Z,91.40
2018-12-30T10:40:12.638Z,91.50
2018-12-30T10:45:18.659Z,91.60
2018-12-30T10:50:24.872Z,91.40
2018-12-30T10:55:30.974Z,90.50
2018-12-30T11:00:37.172Z,91.10
2018-12-30T11:05:43.312Z,90.60
2018-12-30T11:10:49.433Z,91.10
2018-12-30T11:15:55.616Z,90.80
2018-12-30T11:21:01.897Z,90.90
2018-12-30T11:26:07.976Z,90.60
2018-12-30T11:31:14.028Z,91.30
2018-12-30T11:36:20.097Z,91.30
2018-12-30T11:41:26.177Z,91.30
2018-12-30T11:46:32.292Z,90.70
2018-12-30T11:51:38.363Z,90.40
2018-12-30T11:56:44.421Z,90.90
2018-12-30T12:01:50.565Z,90.90
2018-12-30T12:06:56.660Z,90.70
2018-12-30T12:12:02.898Z,91.90
2018-12-30T12:17:09.151Z,92.50
2018-12-30T12:22:15.278Z,92.20
2018-12-30T12:27:21.505Z,91.50
2018-12-30T12:32:27.720Z,91.50
2018-12-30T12:37:33.932Z,91.40
2018-12-30T12:42:40.171Z,91.10
2018-12-30T12:47:46.457Z,91.40
2018-12-30T12:52:52.525Z,91.90
2018-12-30T12:57:58.574Z,91.10
2018-12-30T13:03:04.342Z,90.40
2018-12-30T13:08:10.623Z,90.40
2018-12-30T13:13:16.840Z,90.80
2018-12-30T13:18:22.781Z,90.90
2018-12-30T13:23:28.929Z,91.20
2018-12-30T13:28:35.190Z,91.20
2018-12-30T13:33:41.433Z,90.80
2018-12-30T13:38:47.521Z,90.40
2018-12-30T13:43:53.624Z,90.70
2018-12-30T13:48:59.785Z,90.60
2018-12-30T13:54:05.977Z,90.50
2018-12-30T13:59:12.033Z,90.00
2018-12-30T14:04:18.096Z,89.20
2018-12-30T14:09:24.290Z,89.40
2018-12-30T14:14:30.347Z,88.80
2018-12-30T14:19:36.427Z,89.20
2018-12-30T14:24:42.734Z,90.10
2018-12-30T14:29:48.893Z,90.30
2018-12-30T14:34:55.366Z,90.10
2018-12-30T14:40:01.473Z,90.60
2018-12-30T14:45:08.648Z,90.90
2018-12-30T14:50:14.922Z,90.70
2018-12-30T14:55:21.124Z,91.00
2018-12-30T15:00:27.260Z,90.80
2018-12-30T15:05:33.453Z,91.10
2018-12-30T15:10:39.624Z,90.50
2018-12-30T15:15:45.729Z,90.50
2018-12-30T15:20:51.780Z,90.30
2018-12-30T15:25:58.033Z,90.10
2018-12-30T15:31:04.259Z,90.20
2018-12-30T15:36:10.319Z,90.00
2018-12-30T15:41:16.404Z,89.30
2018-12-30T15:46:22.732Z,89.90
2018-12-30T15:51:28.874Z,90.10
2018-12-30T15:56:34.928Z,90.20
2018-12-30T16:01:41.343Z,90.30
2018-12-30T16:06:47.597Z,90.00
2018-12-30T16:11:54.067Z,90.10
2018-12-30T16:17:00.970Z,90.20
2018-12-30T16:22:07.323Z,90.20
2018-12-30T16:27:13.449Z,90.20
2018-12-30T16:32:19.720Z,89.60
2018-12-30T16:37:25.818Z,89.50
2018-12-30T16:42:32.025Z,89.50
2018-12-30T16:47:41.735Z,89.50
2018-12-30T16:52:45.948Z,90.20
2018-12-30T16:57:52.121Z,90.30
2018-12-30T17:02:58.379Z,90.30
2018-12-30T17:08:04.554Z,90.50
2018-12-30T17:13:10.647Z,90.20
2018-12-30T17:18:16.789Z,90.30
2018-12-30T17:23:22.989Z,90.70
2018-12-30T17:28:29.067Z,91.00
2018-12-30T17:33:35.286Z,91.30
2018-12-30T17:38:41.409Z,91.10
2018-12-30T17:43:47.589Z,91.30
2018-12-30T17:48:53.694Z,91.50
2018-12-30T17:53:59.759Z,91.40
2018-12-30T17:59:05.904Z,91.30
2018-12-30T18:04:12.113Z,91.20
2018-12-30T18:09:18.181Z,91.40
2018-12-30T18:14:24.250Z,91.50
2018-12-30T18:19:30.423Z,91.50
2018-12-30T18:24:36.533Z,91.50
2018-12-30T18:29:42.585Z,91.40
2018-12-30T18:34:48.610Z,91.30
2018-12-30T18:39:54.819Z,91.30
2018-12-30T18:45:00.970Z,91.30
2018-12-30T18:50:07.415Z,91.30
2018-12-30T18:55:13.537Z,91.40
2018-12-30T19:00:20.622Z,91.50
2018-12-30T19:05:26.823Z,91.60
2018-12-30T19:10:33.025Z,91.30
2018-12-30T19:15:39.088Z,90.80
2018-12-30T19:20:45.145Z,90.80
2018-12-30T19:25:51.307Z,91.00
2018-12-30T19:30:57.423Z,91.50
2018-12-30T19:36:03.536Z,91.80
2018-12-30T19:41:09.737Z,91.80
2018-12-30T19:46:15.851Z,91.90
2018-12-30T19:51:21.921Z,91.70
2018-12-30T19:56:28.188Z,92.00
2018-12-30T20:01:34.366Z,92.20
2018-12-30T20:06:40.452Z,92.20
2018-12-30T20:11:46.611Z,92.50
2018-12-30T20:16:52.782Z,92.60
2018-12-30T20:21:59.224Z,92.50
2018-12-30T20:27:05.586Z,92.50
2018-12-30T20:32:12.259Z,92.30
2018-12-30T20:37:18.376Z,92.20
2018-12-30T20:42:24.630Z,92.20
2018-12-30T20:47:30.870Z,92.30
2018-12-30T20:52:36.849Z,92.30
2018-12-30T20:57:43.020Z,92.30
2018-12-30T21:02:49.277Z,92.50
2018-12-30T21:07:55.474Z,92.50
2018-12-30T21:13:01.538Z,92.60
2018-12-30T21:18:07.803Z,92.70
2018-12-30T21:23:13.990Z,93.00
2018-12-30T21:28:20.184Z,93.20
2018-12-30T21:33:26.240Z,93.40
2018-12-30T21:38:32.469Z,93.60
2018-12-30T21:43:38.643Z,93.80
2018-12-30T21:48:44.852Z,93.70
2018-12-30T21:53:50.961Z,94.00
2018-12-30T21:58:57.272Z,94.00
2018-12-30T22:04:03.409Z,93.90
2018-12-30T22:09:09.529Z,93.80
2018-12-30T22:14:15.593Z,93.70
2018-12-30T22:19:21.930Z,93.90
2018-12-30T22:24:29.001Z,94.00
2018-12-30T22:29:35.222Z,94.10
2018-12-30T22:34:41.311Z,94.10
2018-12-30T22:39:47.338Z,94.20
2018-12-30T22:44:53.634Z,94.40
2018-12-30T22:49:59.721Z,94.60
2018-12-30T22:55:06.251Z,94.80
2018-12-30T23:00:23.488Z,94.70
2018-12-30T23:05:29.633Z,94.80
2018-12-30T23:10:35.704Z,94.90
2018-12-30T23:15:41.856Z,95.10
2018-12-30T23:20:47.973Z,95.30
2018-12-30T23:25:54.052Z,95.20
2018-12-30T23:31:00.205Z,95.20
2018-12-30T23:36:06.353Z,95.10
2018-12-30T23:41:12.473Z,95.00
2018-12-30T23:46:18.448Z,94.90
2018-12-30T23:51:24.478Z,94.70
2018-12-30T23:56:30.758Z,95.10
